Time;durP1;ratioP1;P1;durP2;ratioP2;P2;SDS_P1;SDS_P2;PMS_P1;PMS_P2;Temp;Humidity;BMP_temperature;BMP_pressure;BME280_temperature;BME280_humidity;BME280_pressure;Samples;Min_cycle;Max_cycle;Signal;HPM_P1;HPM_P2
2021/07/18 00:01:12;;;;;;;13.95;10.78;;;;;;;21.18;88.65;97863.08;1698993;84;20835;-73
2021/07/18 00:03:37;;;;;;;22.22;13.70;;;;;;;21.17;88.14;97868.38;1699299;84;21017;-73
2021/07/18 00:06:03;;;;;;;18.20;12.82;;;;;;;21.11;88.15;97872.56;1699118;84;21136;-73
2021/07/18 00:08:29;;;;;;;19.00;13.38;;;;;;;21.10;88.29;97876.44;1698879;83;20949;-73
2021/07/18 00:10:55;;;;;;;17.92;12.63;;;;;;;21.12;88.22;97865.89;1697604;84;20926;-74
2021/07/18 00:13:22;;;;;;;16.85;13.60;;;;;;;21.15;88.18;97861.05;1699046;83;20839;-73
2021/07/18 00:15:48;;;;;;;22.17;13.32;;;;;;;21.15;88.26;97869.31;1699047;84;20966;-73
2021/07/18 00:18:14;;;;;;;17.55;12.58;;;;;;;21.16;89.01;97868.16;1699132;84;21219;-73
2021/07/18 00:20:40;;;;;;;22.98;13.60;;;;;;;21.16;88.96;97854.95;1699060;83;20950;-73
2021/07/18 00:23:06;;;;;;;20.85;13.32;;;;;;;21.18;88.71;97858.95;1699080;83;20910;-73
2021/07/18 00:25:32;;;;;;;22.02;12.93;;;;;;;21.21;88.74;97850.58;1698437;84;20959;-74
2021/07/18 00:28:00;;;;;;;25.15;12.98;;;;;;;21.21;88.63;97851.95;1697917;84;20843;-74
2021/07/18 00:30:26;;;;;;;16.17;12.35;;;;;;;21.13;88.60;97853.14;1699297;83;21287;-73
2021/07/18 00:32:52;;;;;;;19.80;12.75;;;;;;;21.06;89.72;97850.77;1699135;83;20966;-73
2021/07/18 00:35:18;;;;;;;17.50;12.63;;;;;;;20.98;89.18;97844.26;1699141;83;20847;-73
2021/07/18 00:37:44;;;;;;;19.40;12.80;;;;;;;20.96;89.61;97847.15;1699557;82;20941;-73
2021/07/18 00:40:10;;;;;;;20.55;13.08;;;;;;;20.92;89.83;97845.66;1699178;84;21552;-73
2021/07/18 00:42:37;;;;;;;17.48;12.23;;;;;;;20.95;89.56;97836.71;1698711;84;21265;-74
2021/07/18 00:45:07;;;;;;;17.35;12.88;;;;;;;21.00;89.86;97845.28;1698940;82;20959;-73
2021/07/18 00:47:36;;;;;;;18.10;13.28;;;;;;;20.91;89.79;97857.83;1699148;83;20962;-73
2021/07/18 00:50:05;;;;;;;15.32;11.15;;;;;;;20.91;89.50;97841.30;1698590;84;20927;-74
2021/07/18 00:52:31;;;;;;;20.52;13.08;;;;;;;20.92;89.89;97834.64;1699019;83;20950;-74
2021/07/18 00:54:57;;;;;;;17.15;12.18;;;;;;;20.84;89.80;97836.39;1699089;84;22026;-73
2021/07/18 00:57:23;;;;;;;18.02;13.18;;;;;;;20.77;90.25;97838.98;1699202;84;20823;-73
2021/07/18 00:59:49;;;;;;;17.30;12.25;;;;;;;20.66;92.35;97848.06;1699138;83;20937;-73
2021/07/18 01:02:16;;;;;;;12.78;11.10;;;;;;;20.64;91.99;97858.63;1698750;84;20914;-73
2021/07/18 01:04:42;;;;;;;18.70;12.50;;;;;;;20.60;92.64;97866.00;1679717;84;21021;-73
2021/07/18 01:07:08;;;;;;;16.55;11.75;;;;;;;20.55;91.37;97860.95;1699245;83;21152;-74
2021/07/18 01:09:34;;;;;;;14.43;11.80;;;;;;;20.59;91.07;97849.23;1711805;83;20926;-74
2021/07/18 01:12:02;;;;;;;19.27;11.85;;;;;;;20.63;91.16;97850.16;1712203;83;21391;-73
2021/07/18 01:14:27;;;;;;;14.53;11.68;;;;;;;20.55;92.26;97843.06;1710248;83;21022;-75
2021/07/18 01:16:54;;;;;;;18.15;12.18;;;;;;;20.58;91.54;97831.12;1711792;83;21540;-74
2021/07/18 01:19:20;;;;;;;17.80;11.57;;;;;;;20.59;91.27;97821.70;1708681;82;21215;-73
2021/07/18 01:21:58;;;;;;;14.63;11.00;;;;;;;20.52;92.14;97826.45;1706866;84;20985;-73
2021/07/18 01:24:24;;;;;;;18.00;10.20;;;;;;;20.50;93.15;97830.91;1707131;83;21002;-73
2021/07/18 01:26:50;;;;;;;16.75;10.98;;;;;;;20.46;92.02;97825.09;1706846;84;21053;-73
2021/07/18 01:29:16;;;;;;;15.30;10.53;;;;;;;20.38;92.29;97820.50;1707159;83;21009;-73
2021/07/18 01:31:42;;;;;;;18.25;11.70;;;;;;;20.32;92.44;97820.51;1706879;82;21350;-74
2021/07/18 01:34:08;;;;;;;14.93;9.88;;;;;;;20.27;92.96;97829.82;1707185;84;20925;-74
2021/07/18 01:36:35;;;;;;;17.30;11.03;;;;;;;20.21;93.03;97846.33;1706925;84;20953;-73
2021/07/18 01:39:07;;;;;;;15.90;10.18;;;;;;;20.11;94.53;97852.31;1707071;84;20966;-73
2021/07/18 01:41:33;;;;;;;16.10;11.93;;;;;;;20.10;93.09;97857.02;1706940;83;21121;-73
2021/07/18 01:43:59;;;;;;;12.93;10.78;;;;;;;20.07;94.41;97867.89;1707095;82;21406;-73
2021/07/18 01:46:25;;;;;;;14.28;10.35;;;;;;;20.06;94.60;97873.96;1706930;84;20834;-73
2021/07/18 01:48:55;;;;;;;14.25;11.45;;;;;;;20.08;93.98;97874.44;1686430;84;21351;-73
2021/07/18 01:51:28;;;;;;;17.15;11.45;;;;;;;20.07;94.50;97872.81;1706944;83;21363;-73
2021/07/18 01:53:56;;;;;;;12.93;10.98;;;;;;;20.13;94.04;97869.27;1707131;82;20926;-73
2021/07/18 01:56:22;;;;;;;18.52;10.70;;;;;;;20.15;93.30;97859.51;1685573;84;21336;-73
2021/07/18 01:58:50;;;;;;;14.78;10.00;;;;;;;20.19;93.01;97861.02;1707129;83;20962;-73
2021/07/18 02:01:17;;;;;;;12.03;10.25;;;;;;;20.21;92.67;97862.27;1706922;83;20930;-74
2021/07/18 02:03:43;;;;;;;15.70;10.93;;;;;;;20.20;93.76;97873.04;1706824;84;20977;-73
2021/07/18 02:06:09;;;;;;;14.23;10.85;;;;;;;20.24;94.09;97875.31;1707051;82;21013;-73
2021/07/18 02:08:35;;;;;;;14.38;10.95;;;;;;;20.25;94.69;97860.98;1704609;82;21158;-74
2021/07/18 02:11:01;;;;;;;17.60;11.93;;;;;;;20.18;95.28;97865.72;1699148;83;20922;-73
2021/07/18 02:13:28;;;;;;;14.10;10.98;;;;;;;20.22;94.77;97867.19;1699037;83;20970;-73
2021/07/18 02:15:53;;;;;;;14.70;11.18;;;;;;;20.19;94.46;97863.77;1699113;83;20936;-73
2021/07/18 02:18:19;;;;;;;13.32;9.73;;;;;;;20.20;93.72;97848.28;1699154;84;21541;-73
2021/07/18 02:20:45;;;;;;;13.28;9.90;;;;;;;20.28;93.21;97847.92;1699329;84;21320;-73
2021/07/18 02:23:11;;;;;;;12.80;9.83;;;;;;;20.26;93.29;97860.66;1698974;84;20910;-73
2021/07/18 02:25:37;;;;;;;11.55;10.00;;;;;;;20.19;92.81;97863.77;1699194;84;20866;-73
2021/07/18 02:28:03;;;;;;;15.48;10.00;;;;;;;20.08;93.04;97866.73;1699054;84;20847;-73
2021/07/18 02:30:29;;;;;;;14.23;10.18;;;;;;;20.00;93.12;97864.36;1699294;84;20862;-73
2021/07/18 02:32:56;;;;;;;15.00;10.38;;;;;;;19.96;93.02;97854.61;1699127;84;21957;-73
2021/07/18 02:35:22;;;;;;;17.02;9.20;;;;;;;19.98;93.31;97863.88;1699223;83;21055;-74
2021/07/18 02:37:49;;;;;;;10.28;7.50;;;;;;;19.93;93.62;97866.88;1699019;83;21014;-73
2021/07/18 02:40:17;;;;;;;10.63;8.75;;;;;;;19.90;92.81;97855.98;1699308;84;21015;-73
2021/07/18 02:42:42;;;;;;;12.00;9.75;;;;;;;19.94;92.69;97850.03;1699033;84;21474;-73
2021/07/18 02:45:10;;;;;;;11.53;9.15;;;;;;;20.00;92.54;97841.79;1699328;83;21049;-74
2021/07/18 02:47:37;;;;;;;23.57;9.93;;;;;;;20.05;92.98;97846.23;1699268;84;21005;-73
2021/07/18 02:50:07;;;;;;;10.23;8.85;;;;;;;20.07;93.92;97839.01;1699246;84;20966;-73
2021/07/18 02:52:32;;;;;;;9.75;8.40;;;;;;;20.03;92.94;97838.91;1698333;84;20927;-73
2021/07/18 02:54:58;;;;;;;10.70;8.08;;;;;;;19.97;93.12;97836.96;1699472;84;20946;-74
2021/07/18 02:57:24;;;;;;;10.20;7.83;;;;;;;19.93;92.46;97827.02;1699021;84;21977;-73
2021/07/18 02:59:51;;;;;;;9.48;7.70;;;;;;;19.89;92.20;97813.72;1699402;84;20870;-73
2021/07/18 03:02:17;;;;;;;9.80;7.45;;;;;;;19.87;92.28;97814.64;1698901;84;21450;-74
2021/07/18 03:04:43;;;;;;;8.83;7.42;;;;;;;19.84;91.75;97812.02;1699234;84;20875;-73
2021/07/18 03:07:09;;;;;;;10.85;7.95;;;;;;;19.80;91.63;97812.46;1698995;84;21398;-73
2021/07/18 03:09:35;;;;;;;12.03;8.65;;;;;;;19.72;92.55;97816.13;1699016;83;21180;-73
2021/07/18 03:12:01;;;;;;;7.97;7.15;;;;;;;19.74;92.45;97813.86;1699090;84;20878;-73
2021/07/18 03:14:28;;;;;;;8.75;6.30;;;;;;;19.72;92.07;97813.38;1699225;83;21449;-73
2021/07/18 03:16:54;;;;;;;15.32;7.53;;;;;;;19.60;91.79;97829.88;1699129;83;20970;-73
2021/07/18 03:19:19;;;;;;;8.08;7.17;;;;;;;19.45;91.82;97829.37;1698721;84;20890;-74
2021/07/18 03:21:45;;;;;;;9.93;7.47;;;;;;;19.41;92.02;97833.17;1697775;84;21234;-73
2021/07/18 03:24:11;;;;;;;8.10;7.08;;;;;;;19.39;91.91;97829.94;1699262;84;20926;-73
2021/07/18 03:26:37;;;;;;;10.45;7.65;;;;;;;19.39;92.33;97833.48;1699278;83;20946;-73
2021/07/18 03:29:03;;;;;;;9.18;6.47;;;;;;;19.40;91.77;97831.56;1699582;83;21504;-74
2021/07/18 03:31:29;;;;;;;8.15;6.80;;;;;;;19.35;91.94;97833.15;1697915;83;20871;-73
2021/07/18 03:33:55;;;;;;;12.85;6.65;;;;;;;19.33;92.36;97821.14;1699355;83;21831;-73
2021/07/18 03:36:21;;;;;;;7.50;6.75;;;;;;;19.37;92.07;97816.55;1699951;83;20827;-73
2021/07/18 03:38:47;;;;;;;6.67;5.85;;;;;;;19.37;91.47;97818.50;1698205;83;21552;-73
2021/07/18 03:41:13;;;;;;;9.58;6.78;;;;;;;19.33;92.07;97822.52;1699127;84;20902;-73
2021/07/18 03:43:39;;;;;;;11.53;6.78;;;;;;;19.32;92.86;97822.86;1699249;82;20938;-73
2021/07/18 03:46:05;;;;;;;11.15;6.65;;;;;;;19.38;91.93;97826.39;1698715;83;21211;-73
2021/07/18 03:48:33;;;;;;;7.60;6.15;;;;;;;19.35;91.45;97829.83;1696196;84;20938;-73
2021/07/18 03:50:59;;;;;;;;;;;;;;;19.30;91.43;97831.98;1701802;83;20954;-72
2021/07/18 03:53:25;;;;;;;7.28;6.22;;;;;;;19.18;92.13;97825.11;1698970;84;20566;-72
2021/07/18 03:55:51;;;;;;;6.92;6.22;;;;;;;19.06;92.52;97832.19;1699207;83;20915;-73
2021/07/18 03:58:17;;;;;;;10.88;6.12;;;;;;;19.08;92.38;97834.02;1699090;84;21994;-72
2021/07/18 04:00:43;;;;;;;10.13;5.58;;;;;;;19.08;91.73;97840.88;1699173;84;20864;-73
2021/07/18 04:03:09;;;;;;;8.08;6.28;;;;;;;19.09;91.40;97837.56;1699107;84;21587;-73
2021/07/18 04:05:35;;;;;;;10.13;6.65;;;;;;;19.14;91.36;97836.79;1699246;83;20946;-72
2021/07/18 04:08:01;;;;;;;8.95;5.90;;;;;;;19.21;91.71;97835.41;1699032;84;21009;-73
2021/07/18 04:10:27;;;;;;;10.78;6.35;;;;;;;19.26;91.69;97837.95;1698963;84;22066;-72
2021/07/18 04:12:53;;;;;;;10.08;6.50;;;;;;;19.32;91.99;97837.97;1698849;84;20904;-73
2021/07/18 04:15:18;;;;;;;6.60;5.70;;;;;;;19.36;92.29;97838.30;1699383;84;20985;-73
2021/07/18 04:17:44;;;;;;;7.65;5.92;;;;;;;19.37;92.53;97843.22;1699006;84;22263;-72
2021/07/18 04:20:11;;;;;;;7.10;5.28;;;;;;;19.41;91.59;97846.33;1699342;84;20851;-73
2021/07/18 04:22:37;;;;;;;10.08;6.35;;;;;;;19.33;91.26;97846.44;1699012;84;21027;-72
2021/07/18 04:25:05;;;;;;;9.03;6.17;;;;;;;19.28;91.76;97840.58;1699162;84;21004;-72
2021/07/18 04:27:31;;;;;;;8.20;6.58;;;;;;;19.33;91.27;97839.56;1699040;83;20954;-73
2021/07/18 04:29:56;;;;;;;6.55;5.75;;;;;;;19.36;91.56;97840.25;1699329;84;20922;-73
2021/07/18 04:32:22;;;;;;;10.00;6.12;;;;;;;19.41;91.59;97840.84;1698991;84;20899;-73
2021/07/18 04:34:48;;;;;;;7.60;6.12;;;;;;;19.39;91.29;97836.80;1699074;83;21376;-73
2021/07/18 04:37:14;;;;;;;7.70;7.00;;;;;;;19.39;92.65;97839.55;1698989;84;20843;-73
2021/07/18 04:39:40;;;;;;;6.53;5.72;;;;;;;19.47;92.95;97846.09;1699300;84;20941;-74
2021/07/18 04:42:06;;;;;;;10.23;6.47;;;;;;;19.56;92.38;97847.61;1699073;84;21748;-73
2021/07/18 04:44:32;;;;;;;8.88;6.35;;;;;;;19.63;91.78;97847.05;1699440;84;20867;-73
2021/07/18 04:46:58;;;;;;;11.93;5.80;;;;;;;19.66;91.54;97843.64;1679316;84;22018;-73
2021/07/18 04:49:24;;;;;;;7.97;5.60;;;;;;;19.72;91.70;97843.05;1699438;84;21065;-73
2021/07/18 04:51:52;;;;;;;7.10;5.47;;;;;;;19.80;91.28;97841.91;1699360;84;20910;-73
2021/07/18 04:54:18;;;;;;;8.45;6.50;;;;;;;19.80;90.73;97857.02;1699356;83;20963;-73
2021/07/18 04:56:44;;;;;;;8.20;6.37;;;;;;;19.84;90.91;97864.83;1699236;84;20831;-73
2021/07/18 04:59:10;;;;;;;7.78;6.20;;;;;;;19.81;90.23;97864.92;1699346;84;21406;-73
2021/07/18 05:01:36;;;;;;;8.15;6.55;;;;;;;19.78;90.06;97860.12;1699184;84;20859;-73
2021/07/18 05:04:02;;;;;;;8.85;6.45;;;;;;;19.77;90.25;97861.27;1699296;84;20965;-74
2021/07/18 05:06:28;;;;;;;14.58;6.58;;;;;;;19.78;90.34;97860.70;1699330;84;21439;-73
2021/07/18 05:08:54;;;;;;;8.78;5.58;;;;;;;19.79;90.64;97869.17;1701616;82;21524;-73
2021/07/18 05:11:20;;;;;;;9.38;5.62;;;;;;;19.84;90.70;97859.33;1709066;84;21159;-73
2021/07/18 05:13:48;;;;;;;9.68;6.85;;;;;;;19.90;90.32;97855.98;1708010;83;20937;-74
2021/07/18 05:16:14;;;;;;;7.90;6.17;;;;;;;19.99;90.24;97861.36;1707231;84;20915;-73
2021/07/18 05:18:40;;;;;;;12.23;6.87;;;;;;;19.98;90.91;97861.94;1707238;83;21559;-74
2021/07/18 05:21:06;;;;;;;11.93;8.63;;;;;;;20.07;90.25;97864.56;1707204;84;20894;-73
2021/07/18 05:23:32;;;;;;;14.78;12.45;;;;;;;20.12;90.03;97866.29;1706915;82;21300;-73
2021/07/18 05:25:58;;;;;;;12.85;11.45;;;;;;;20.17;90.66;97875.69;1707166;83;20922;-73
2021/07/18 05:28:24;;;;;;;14.55;9.78;;;;;;;20.20;90.19;97871.66;1706958;83;20942;-74
2021/07/18 05:30:50;;;;;;;17.52;11.03;;;;;;;20.18;89.92;97878.09;1707264;82;21487;-73
2021/07/18 05:33:16;;;;;;;11.18;10.00;;;;;;;20.23;90.04;97879.22;1706848;83;20815;-73
2021/07/18 05:35:42;;;;;;;13.58;10.00;;;;;;;20.29;89.97;97883.34;1707142;82;21312;-73
2021/07/18 05:38:07;;;;;;;10.70;9.58;;;;;;;20.37;90.32;97883.56;1706863;84;20933;-73
2021/07/18 05:40:34;;;;;;;10.18;8.38;;;;;;;20.38;89.68;97881.03;1707135;84;21639;-73
2021/07/18 05:43:00;;;;;;;12.80;8.08;;;;;;;20.41;89.75;97888.01;1706939;84;21006;-73
2021/07/18 05:45:26;;;;;;;8.90;7.35;;;;;;;20.55;89.43;97885.72;1707093;82;20985;-74
2021/07/18 05:47:52;;;;;;;8.60;7.70;;;;;;;20.65;89.80;97883.63;1706955;84;21309;-73
2021/07/18 05:50:18;;;;;;;11.12;7.30;;;;;;;20.81;89.51;97879.79;1707177;83;20854;-74
2021/07/18 05:52:44;;;;;;;9.78;7.00;;;;;;;21.01;89.32;97887.61;1706930;83;21402;-73
2021/07/18 05:55:10;;;;;;;13.93;9.00;;;;;;;21.13;88.98;97877.94;1707227;84;20866;-73
2021/07/18 05:57:37;;;;;;;16.25;12.30;;;;;;;21.31;88.69;97878.44;1706809;83;21060;-73
2021/07/18 06:00:11;;;;;;;14.73;9.98;;;;;;;21.49;88.61;97871.20;1707207;84;21301;-74
2021/07/18 06:02:37;;;;;;;12.53;9.78;;;;;;;21.74;88.00;97872.64;1706716;84;21437;-75
2021/07/18 06:05:04;;;;;;;12.53;9.15;;;;;;;21.81;87.33;97869.27;1706779;84;20941;-73
2021/07/18 06:07:30;;;;;;;10.88;9.03;;;;;;;21.88;87.34;97875.75;1706977;83;21015;-74
2021/07/18 06:09:56;;;;;;;11.03;8.35;;;;;;;22.01;87.20;97877.81;1701347;82;20962;-73
2021/07/18 06:12:22;;;;;;;9.40;7.05;;;;;;;22.06;86.88;97876.17;1698041;83;21331;-73
2021/07/18 06:14:48;;;;;;;7.50;6.65;;;;;;;22.11;86.80;97877.29;1700548;84;21572;-73
2021/07/18 06:17:14;;;;;;;8.30;6.78;;;;;;;22.08;86.17;97878.02;1699102;83;20855;-76
2021/07/18 06:19:59;;;;;;;12.07;7.05;;;;;;;21.93;84.99;97878.22;1699432;83;20914;-73
2021/07/18 06:22:25;;;;;;;13.43;8.08;;;;;;;21.86;85.71;97876.66;1699325;84;20918;-74
2021/07/18 06:24:51;;;;;;;10.00;8.75;;;;;;;21.84;86.09;97871.30;1699609;83;21105;-74
2021/07/18 06:27:17;;;;;;;12.13;9.78;;;;;;;21.62;86.48;97872.70;1699368;83;20933;-74
2021/07/18 06:29:43;;;;;;;15.78;11.38;;;;;;;21.70;86.48;97874.48;1699515;82;20910;-74
2021/07/18 06:32:09;;;;;;;13.70;11.57;;;;;;;21.67;86.07;97876.59;1699375;84;21468;-74
2021/07/18 06:34:35;;;;;;;15.40;11.53;;;;;;;21.68;85.95;97883.13;1699614;83;20891;-74
2021/07/18 06:37:01;;;;;;;16.62;13.55;;;;;;;21.74;86.02;97883.67;1697369;84;21318;-73
2021/07/18 06:39:27;;;;;;;23.07;17.82;;;;;;;21.79;86.07;97884.79;1697055;83;20930;-73
2021/07/18 06:41:53;;;;;;;22.87;17.32;;;;;;;21.75;86.83;97883.09;1698172;84;20914;-75
2021/07/18 06:44:19;;;;;;;25.00;16.82;;;;;;;22.02;86.22;97879.41;1699503;83;20906;-75
2021/07/18 06:46:45;;;;;;;34.53;24.40;;;;;;;22.28;85.92;97877.48;1698954;84;20990;-74
2021/07/18 06:49:11;;;;;;;35.45;27.93;;;;;;;22.38;85.38;97883.81;1699459;83;21299;-74
2021/07/18 06:51:37;;;;;;;34.63;25.32;;;;;;;22.17;85.02;97892.42;1699400;84;21512;-75
2021/07/18 06:54:03;;;;;;;34.30;27.25;;;;;;;22.04;85.57;97898.36;1699432;82;20891;-74
2021/07/18 06:56:30;;;;;;;35.80;27.17;;;;;;;21.73;86.67;97897.81;1699228;83;20871;-74
2021/07/18 06:58:57;;;;;;;36.85;26.60;;;;;;;21.74;86.22;97899.41;1679681;84;21418;-74
2021/07/18 07:01:23;;;;;;;39.50;27.77;;;;;;;21.70;86.34;97902.06;1699295;84;21137;-73
2021/07/18 07:03:49;;;;;;;35.65;24.77;;;;;;;21.58;87.27;97893.31;1699262;83;20933;-73
2021/07/18 07:06:15;;;;;;;32.58;25.32;;;;;;;21.54;87.58;97901.28;1699354;83;20998;-74
2021/07/18 07:08:41;;;;;;;33.78;23.67;;;;;;;21.51;87.86;97912.41;1697372;83;20874;-73
2021/07/18 07:11:07;;;;;;;30.43;23.57;;;;;;;21.58;87.54;97903.54;1707393;83;20870;-73
2021/07/18 07:13:33;;;;;;;34.23;24.10;;;;;;;21.71;87.39;97902.31;1706752;82;21348;-73
2021/07/18 07:15:59;;;;;;;26.15;20.27;;;;;;;21.77;87.17;97903.63;1707090;84;20931;-73
2021/07/18 07:18:24;;;;;;;27.65;21.93;;;;;;;21.67;87.35;97897.27;1706787;83;20929;-73
2021/07/18 07:20:50;;;;;;;31.97;22.77;;;;;;;21.74;87.16;97904.93;1707182;84;20937;-73
2021/07/18 07:23:16;;;;;;;25.30;22.02;;;;;;;21.66;87.93;97908.08;1706786;83;20866;-73
2021/07/18 07:25:42;;;;;;;25.52;22.25;;;;;;;21.75;87.83;97903.19;1706790;83;21938;-73
2021/07/18 07:28:08;;;;;;;23.85;18.98;;;;;;;21.85;87.98;97899.89;1706720;84;20933;-73
2021/07/18 07:30:36;;;;;;;27.22;22.07;;;;;;;21.94;87.31;97893.61;1707099;84;20941;-73
2021/07/18 07:33:03;;;;;;;26.15;20.72;;;;;;;22.07;87.00;97893.52;1706725;83;20962;-73
2021/07/18 07:35:29;;;;;;;22.73;17.77;;;;;;;22.06;87.33;97895.48;1707045;84;20961;-73
2021/07/18 07:37:55;;;;;;;21.73;17.73;;;;;;;22.14;86.62;97906.94;1706796;84;21011;-73
2021/07/18 07:40:21;;;;;;;25.35;20.90;;;;;;;22.16;86.29;97902.44;1707014;83;21552;-74
2021/07/18 07:42:47;;;;;;;16.45;13.60;;;;;;;22.25;86.32;97909.95;1706837;83;20889;-73
2021/07/18 07:45:14;;;;;;;20.02;14.93;;;;;;;22.13;84.26;97905.89;1707153;83;20913;-74
2021/07/18 07:47:40;;;;;;;20.00;13.65;;;;;;;21.99;84.44;97917.38;1706850;83;21022;-73
2021/07/18 07:50:08;;;;;;;20.68;15.98;;;;;;;22.00;84.17;97917.59;1707067;82;21860;-73
2021/07/18 07:52:35;;;;;;;15.95;14.25;;;;;;;22.04;84.31;97919.84;1706828;84;20907;-74
2021/07/18 07:55:01;;;;;;;17.82;14.10;;;;;;;22.12;84.37;97919.48;1707144;83;21474;-74
2021/07/18 07:57:27;;;;;;;14.85;13.20;;;;;;;22.14;84.42;97917.98;1706761;83;21013;-73
2021/07/18 07:59:53;;;;;;;14.28;12.40;;;;;;;22.13;84.31;97920.52;1707174;84;20948;-74
2021/07/18 08:02:19;;;;;;;16.42;12.25;;;;;;;22.03;84.26;97921.59;1706956;84;20910;-73
2021/07/18 08:04:45;;;;;;;16.20;12.90;;;;;;;21.98;84.73;97921.30;1706619;84;21013;-74
2021/07/18 08:07:11;;;;;;;16.42;13.35;;;;;;;21.81;84.91;97919.70;1706990;84;20992;-73
2021/07/18 08:09:37;;;;;;;16.37;14.38;;;;;;;21.77;85.53;97920.75;1708813;82;20850;-74
2021/07/18 08:12:03;;;;;;;18.52;16.50;;;;;;;21.71;86.27;97921.61;1716850;83;20894;-73
2021/07/18 08:14:29;;;;;;;28.23;22.35;;;;;;;21.49;87.79;97921.63;1717024;82;21137;-74
2021/07/18 08:16:55;;;;;;;27.05;21.00;;;;;;;21.32;88.94;97924.70;1716606;82;20824;-73
2021/07/18 08:19:21;;;;;;;28.73;22.10;;;;;;;21.23;89.40;97920.70;1714817;83;20988;-73
2021/07/18 08:21:47;;;;;;;32.58;23.90;;;;;;;21.11;90.38;97925.70;1706929;84;20929;-73
2021/07/18 08:24:13;;;;;;;32.33;23.40;;;;;;;21.13;90.44;97922.59;1706763;82;21040;-73
2021/07/18 08:26:39;;;;;;;38.30;30.15;;;;;;;21.13;90.45;97918.45;1707030;82;21312;-74
2021/07/18 08:29:05;;;;;;;30.68;27.35;;;;;;;21.08;91.08;97922.83;1706794;83;20842;-73
2021/07/18 08:31:31;;;;;;;39.18;26.27;;;;;;;21.23;90.22;97925.41;1706798;84;21061;-73
2021/07/18 08:33:57;;;;;;;38.10;26.75;;;;;;;21.16;90.22;97936.23;1706989;82;20882;-73
2021/07/18 08:36:23;;;;;;;33.92;26.55;;;;;;;21.09;90.68;97939.00;1707021;83;20974;-73
2021/07/18 08:38:49;;;;;;;32.90;25.97;;;;;;;21.01;90.84;97943.28;1706930;84;21097;-73
2021/07/18 08:41:15;;;;;;;36.48;27.50;;;;;;;20.99;90.99;97950.52;1707036;84;21478;-73
2021/07/18 08:43:41;;;;;;;36.60;27.10;;;;;;;21.05;90.36;97948.33;1706889;84;20978;-73
2021/07/18 08:46:07;;;;;;;37.23;27.82;;;;;;;21.11;90.00;97941.42;1707002;83;20906;-73
2021/07/18 08:48:33;;;;;;;37.48;28.20;;;;;;;21.11;90.06;97944.98;1706791;84;20890;-73
2021/07/18 08:50:59;;;;;;;41.60;29.50;;;;;;;21.17;89.80;97940.58;1706998;83;21143;-73
2021/07/18 08:53:27;;;;;;;38.65;28.62;;;;;;;21.19;90.37;97936.89;1706738;84;20910;-73
2021/07/18 08:55:53;;;;;;;38.25;28.35;;;;;;;21.19;90.03;97941.82;1707289;84;21030;-73
2021/07/18 08:58:19;;;;;;;42.88;31.45;;;;;;;21.27;89.97;97935.97;1706831;83;20958;-73
2021/07/18 09:00:45;;;;;;;41.48;30.92;;;;;;;21.34;90.28;97936.97;1707124;83;20876;-74
2021/07/18 09:03:16;;;;;;;40.45;30.85;;;;;;;21.50;89.60;97944.48;1706822;82;21852;-73
2021/07/18 09:05:43;;;;;;;43.15;31.52;;;;;;;21.56;89.33;97946.62;1706980;84;21021;-73
2021/07/18 09:08:19;;;;;;;38.67;31.17;;;;;;;21.72;88.91;97957.68;1706720;83;21458;-72
2021/07/18 09:10:48;;;;;;;41.33;31.93;;;;;;;21.82;88.73;97959.91;1704862;83;21018;-74
2021/07/18 09:13:17;;;;;;;38.70;30.68;;;;;;;21.98;88.54;97958.54;1698928;83;20927;-73
2021/07/18 09:15:46;;;;;;;36.40;28.47;;;;;;;22.07;88.03;97949.53;1679585;84;21227;-73
2021/07/18 09:18:15;;;;;;;39.13;28.62;;;;;;;22.12;87.77;97947.06;1698793;83;21015;-73
2021/07/18 09:20:42;;;;;;;;;;;;;;;22.16;87.51;97941.88;1701544;83;20942;-73
2021/07/18 09:23:19;;;;;;;37.90;29.42;;;;;;;22.06;87.45;97932.73;1699141;84;20485;-74
2021/07/18 09:25:45;;;;;;;38.90;28.80;;;;;;;22.08;87.55;97940.67;1700309;83;20974;-74
2021/07/18 09:28:16;;;;;;;35.85;28.98;;;;;;;22.00;87.95;97943.80;1698904;83;21262;-74
2021/07/18 09:30:42;;;;;;;40.70;28.85;;;;;;;21.92;88.13;97946.16;1698955;84;21021;-73
2021/07/18 09:33:28;;;;;;;37.78;28.73;;;;;;;21.93;88.01;97960.97;1699028;84;20998;-73
2021/07/18 09:36:13;;;;;;;39.25;29.02;;;;;;;21.98;87.66;97957.16;1676161;84;21018;-73
2021/07/18 09:38:42;;;;;;;34.20;27.50;;;;;;;22.00;87.45;97954.84;1685704;84;21019;-73
2021/07/18 09:41:08;;;;;;;31.90;26.57;;;;;;;22.01;87.20;97950.92;1699610;84;21506;-72
2021/07/18 09:43:34;;;;;;;36.58;27.22;;;;;;;22.02;86.86;97950.34;1698985;84;20911;-72
2021/07/18 09:46:10;;;;;;;36.15;25.77;;;;;;;22.00;86.91;97948.52;1699388;83;20918;-73
2021/07/18 09:48:46;;;;;;;30.23;24.40;;;;;;;22.01;86.92;97950.13;1680627;84;21006;-73
2021/07/18 09:51:14;;;;;;;34.13;24.37;;;;;;;22.06;86.74;97954.00;1699350;83;21399;-73
2021/07/18 09:53:41;;;;;;;28.10;23.98;;;;;;;22.03;86.51;97945.04;1699379;84;21137;-73
2021/07/18 09:56:18;;;;;;;30.12;23.35;;;;;;;22.04;86.52;97939.16;1699198;84;20998;-73
2021/07/18 09:58:57;;;;;;;32.45;24.77;;;;;;;22.00;86.55;97935.53;1698164;84;21026;-73
2021/07/18 10:01:23;;;;;;;27.73;22.87;;;;;;;21.94;86.64;97930.05;1679607;84;21364;-73
2021/07/18 10:03:52;;;;;;;26.85;22.93;;;;;;;21.92;86.61;97926.85;1696559;84;21026;-73
2021/07/18 10:06:22;;;;;;;31.77;24.10;;;;;;;21.92;86.73;97924.89;1699395;84;21227;-73
2021/07/18 10:08:51;;;;;;;32.53;24.45;;;;;;;21.85;86.91;97922.53;1699106;83;21010;-74
2021/07/18 10:11:19;;;;;;;29.65;22.67;;;;;;;21.84;87.48;97922.31;1707117;82;21020;-73
2021/07/18 10:13:47;;;;;;;29.98;24.27;;;;;;;21.79;87.78;97930.30;1709585;82;21441;-73
2021/07/18 10:16:19;;;;;;;31.07;23.35;;;;;;;21.76;87.50;97948.11;1686864;84;20955;-72
2021/07/18 10:18:47;;;;;;;33.38;25.23;;;;;;;21.72;87.53;97967.33;1707089;83;20962;-74
2021/07/18 10:21:20;;;;;;;41.75;25.85;;;;;;;21.60;87.75;97988.86;1707094;83;20910;-74
2021/07/18 10:23:48;;;;;;;29.18;18.87;;;;;;;21.42;88.93;98011.58;1707087;83;21406;-75
2021/07/18 10:26:19;;;;;;;20.75;13.80;;;;;;;21.13;90.36;98028.66;1707130;83;21391;-75
2021/07/18 10:28:46;;;;;;;18.35;11.83;;;;;;;20.74;91.36;98034.34;1707123;84;20950;-74
2021/07/18 10:31:23;;;;;;;14.85;8.78;;;;;;;20.34;92.44;98030.89;1707025;82;21247;-73
2021/07/18 10:33:49;;;;;;;10.40;6.92;;;;;;;20.08;94.41;98032.59;1696046;83;20894;-73
2021/07/18 10:36:19;;;;;;;8.50;6.35;;;;;;;19.75;94.63;98007.88;1706955;83;20839;-73
2021/07/18 10:38:45;;;;;;;7.55;4.58;;;;;;;19.59;94.25;98000.05;1687139;84;21414;-74
2021/07/18 10:41:12;;;;;;;6.12;3.30;;;;;;;19.17;96.24;98013.81;1707142;84;20926;-74
2021/07/18 10:43:49;;;;;;;8.43;3.35;;;;;;;18.85;95.31;98011.23;1706922;84;21952;-73
2021/07/18 10:46:37;;;;;;;5.50;3.72;;;;;;;18.37;96.94;98007.53;1707058;84;20899;-73
2021/07/18 10:49:03;;;;;;;6.53;4.00;;;;;;;18.23;99.45;98005.83;1707077;84;20958;-74
2021/07/18 10:51:36;;;;;;;4.40;3.30;;;;;;;18.06;100.00;97985.34;1707004;82;20882;-73
2021/07/18 10:54:19;;;;;;;7.08;3.90;;;;;;;18.13;98.38;97977.98;1706902;82;21018;-72
2021/07/18 10:56:51;;;;;;;7.08;4.37;;;;;;;18.14;97.76;97960.39;1706983;83;21774;-72
2021/07/18 10:59:36;;;;;;;5.95;3.75;;;;;;;18.21;98.58;97960.12;1706794;84;20973;-72
2021/07/18 11:02:19;;;;;;;7.58;3.10;;;;;;;18.25;97.06;97952.02;1706911;84;20918;-72
2021/07/18 11:04:49;;;;;;;5.50;3.37;;;;;;;18.26;95.98;97942.66;1706792;83;20978;-73
2021/07/18 11:07:32;;;;;;;5.75;3.75;;;;;;;18.25;96.41;97940.48;1706947;84;20914;-73
2021/07/18 11:10:12;;;;;;;6.15;3.62;;;;;;;18.29;97.38;97951.04;1705519;83;21913;-72
2021/07/18 11:12:48;;;;;;;6.75;4.00;;;;;;;18.35;97.50;97963.98;1706860;84;21379;-73
2021/07/18 11:15:23;;;;;;;6.90;4.30;;;;;;;18.36;96.24;97958.72;1707136;84;21386;-74
2021/07/18 11:18:11;;;;;;;8.88;3.90;;;;;;;18.32;93.89;97966.02;1686308;84;21034;-72
2021/07/18 11:20:52;;;;;;;6.90;5.25;;;;;;;18.26;93.23;97975.56;1707165;84;21005;-72
2021/07/18 11:23:43;;;;;;;8.80;6.08;;;;;;;18.16;92.98;97989.66;1706889;84;21880;-74